This is the latest recevied weather packets stored in our database for station/object M0ADS. If no packets are shown the sender has not sent any weather packets the latest 10 day(s).
| Time | Temp. | Humidity | Pressure | Rain* | Wind** | Luminosity | Snow |
|---|---|---|---|---|---|---|---|
| 1777108443 | 18.89° C | 35% | 1020.4 hPa | 0 mm | - | - | - |
| 1777107543 | 18.33° C | 38% | 1020.5 hPa | 0 mm | - | - | - |
| 1777106643 | 17.78° C | 39% | 1020.4 hPa | 0 mm | - | - | - |
| 1777105743 | 17.78° C | 44% | 1020.5 hPa | 0 mm | - | - | - |
| 1777104843 | 17.22° C | 44% | 1020.5 hPa | 0 mm | - | - | - |
| 1777103943 | 16.67° C | 46% | 1020.5 hPa | 0 mm | - | - | - |
| 1777103043 | 15.56° C | 48% | 1020.5 hPa | 0 mm | - | - | - |
| 1777102143 | 15.56° C | 48% | 1020.6 hPa | 0 mm | - | - | - |
| 1777101242 | 14.44° C | 53% | 1020.5 hPa | 0 mm | - | - | - |
| 1777100343 | 13.33° C | 57% | 1020.5 hPa | 0 mm | - | - | - |
| 1777099443 | 11.67° C | 59% | 1020.5 hPa | 0 mm | - | - | - |
| 1777098543 | 10° C | 68% | 1020.5 hPa | 0 mm | - | - | - |
| 1777097642 | 8.33° C | 73% | 1020.5 hPa | 0 mm | - | - | - |
| 1777096743 | 6.11° C | 75% | 1020.4 hPa | 0 mm | - | - | - |
| 1777095840 | 5.56° C | 75% | 1020.4 hPa | 0 mm | - | - | - |
| 1777094940 | 5.56° C | 75% | 1020.4 hPa | 0 mm | - | - | - |
| 1777094040 | 5° C | 74% | 1020.4 hPa | 0 mm | - | - | - |
| 1777093140 | 5.56° C | 73% | 1020.4 hPa | 0 mm | - | - | - |
| 1777092238 | 5.56° C | 73% | 1020.5 hPa | 0 mm | - | - | - |
| 1777091338 | 5.56° C | 73% | 1020.5 hPa | 0 mm | - | - | - |
| 1777090438 | 5.56° C | 72% | 1020.4 hPa | 0 mm | - | - | - |
| 1777089535 | 5.56° C | 71% | 1020.6 hPa | 0 mm | - | - | - |
| 1777088634 | 6.11° C | 70% | 1020.6 hPa | 0 mm | - | - | - |
| 1777087732 | 6.11° C | 68% | 1020.6 hPa | 0 mm | - | - | - |
| 1777086831 | 6.67° C | 67% | 1020.4 hPa | 0 mm | - | - | - |
* Rain latest hour (hover to see other rain measurements)
** Current wind speed in m/s (hover to see current wind gust speed)